createdAt,value
2022-10-19T00:00:46.192Z,68.07
2022-10-19T00:01:46.296Z,67.74
2022-10-19T00:02:46.162Z,67.74
2022-10-19T00:03:46.237Z,68.13
2022-10-19T00:04:46.154Z,68.13
2022-10-19T00:05:46.173Z,68.29
2022-10-19T00:06:46.168Z,68.57
2022-10-19T00:07:46.108Z,68.35
2022-10-19T00:08:46.253Z,68.29
2022-10-19T00:09:46.182Z,68.80
2022-10-19T00:10:46.228Z,68.97
2022-10-19T00:11:46.465Z,68.97
2022-10-19T00:12:46.052Z,69.03
2022-10-19T00:13:46.022Z,69.26
2022-10-19T00:14:46.035Z,69.49
2022-10-19T00:15:46.058Z,69.95
2022-10-19T00:16:46.023Z,69.89
2022-10-19T00:17:45.992Z,70.42
2022-10-19T00:18:45.986Z,70.54
2022-10-19T00:19:45.987Z,70.54
2022-10-19T00:20:46.277Z,70.78
2022-10-19T00:21:46.000Z,70.72
2022-10-19T00:22:45.916Z,70.72
2022-10-19T00:23:45.910Z,70.42
2022-10-19T00:24:45.876Z,70.96
2022-10-19T00:25:45.889Z,70.54
2022-10-19T00:26:45.882Z,70.78
2022-10-19T00:27:45.865Z,70.78
2022-10-19T00:28:45.933Z,71.14
2022-10-19T00:29:45.842Z,71.14
2022-10-19T00:30:45.886Z,71.32
2022-10-19T00:31:45.817Z,71.32
2022-10-19T00:32:45.771Z,71.50
2022-10-19T00:33:45.754Z,71.87
2022-10-19T00:34:45.753Z,71.99
2022-10-19T00:35:45.785Z,71.99
2022-10-19T00:36:45.709Z,71.56
2022-10-19T00:37:45.708Z,71.50
2022-10-19T00:38:45.741Z,71.69
2022-10-19T00:39:45.829Z,71.56
2022-10-19T00:40:45.725Z,71.32
2022-10-19T00:41:45.658Z,71.14
2022-10-19T00:42:45.687Z,70.96
2022-10-19T00:43:45.642Z,71.26
2022-10-19T00:44:45.667Z,71.20
2022-10-19T00:45:45.616Z,71.26
2022-10-19T00:46:45.592Z,71.08
2022-10-19T00:47:45.636Z,71.44
2022-10-19T00:48:45.654Z,71.87
2022-10-19T00:49:45.580Z,71.75
2022-10-19T00:50:45.577Z,72.49
2022-10-19T00:51:45.669Z,72.43
2022-10-19T00:52:45.610Z,72.87
2022-10-19T00:53:45.589Z,73.38
2022-10-19T00:54:45.591Z,73.19
2022-10-19T00:55:45.531Z,73.25
2022-10-19T00:56:45.575Z,73.51
2022-10-19T00:57:45.571Z,73.57
2022-10-19T00:58:45.480Z,73.45
2022-10-19T00:59:45.440Z,73.51
2022-10-19T01:00:45.508Z,73.51
2022-10-19T01:01:45.504Z,73.64
2022-10-19T01:02:45.417Z,73.13
2022-10-19T01:03:45.509Z,73.25
2022-10-19T01:04:45.513Z,73.51
2022-10-19T01:05:45.474Z,73.25
2022-10-19T01:06:45.625Z,73.64
2022-10-19T01:07:45.564Z,73.57
2022-10-19T01:08:45.556Z,73.90
2022-10-19T01:09:46.182Z,74.03
2022-10-19T01:10:45.444Z,73.96
2022-10-19T01:11:45.369Z,73.96
2022-10-19T01:12:45.771Z,74.49
2022-10-19T01:13:45.438Z,74.56
2022-10-19T01:14:45.309Z,74.16
2022-10-19T01:15:45.346Z,74.36
2022-10-19T01:16:45.337Z,74.43
2022-10-19T01:17:45.247Z,74.69
2022-10-19T01:18:45.290Z,74.96
2022-10-19T01:19:45.264Z,75.09
2022-10-19T01:20:45.203Z,75.36
2022-10-19T01:21:45.229Z,75.29
2022-10-19T01:22:46.137Z,74.82
2022-10-19T01:23:45.107Z,75.29
2022-10-19T01:24:45.166Z,75.64
2022-10-19T01:25:45.083Z,76.32
2022-10-19T01:26:45.062Z,76.60
2022-10-19T01:27:45.050Z,76.60
2022-10-19T01:28:45.145Z,76.96
2022-10-19T01:29:45.052Z,76.96
2022-10-19T01:30:45.043Z,76.89
2022-10-19T01:31:45.036Z,76.67
2022-10-19T01:32:45.006Z,77.17
2022-10-19T01:33:44.979Z,76.96
2022-10-19T01:34:44.953Z,77.45
2022-10-19T01:35:44.950Z,77.60
2022-10-19T01:36:45.017Z,77.03
2022-10-19T01:37:44.955Z,77.24
2022-10-19T01:38:44.937Z,77.10
2022-10-19T01:39:47.707Z,77.81
2022-10-19T01:40:44.896Z,77.24
2022-10-19T01:41:45.100Z,77.17
2022-10-19T01:42:44.942Z,77.53
2022-10-19T01:43:44.934Z,77.24
2022-10-19T01:44:44.884Z,77.31
2022-10-19T01:45:45.721Z,77.60
2022-10-19T01:46:44.967Z,77.45
2022-10-19T01:47:44.786Z,77.60
2022-10-19T01:48:44.790Z,77.60
2022-10-19T01:49:44.828Z,77.60
2022-10-19T01:50:44.770Z,77.10
2022-10-19T01:51:44.740Z,77.31
2022-10-19T01:52:44.771Z,77.45
2022-10-19T01:53:44.694Z,76.89
2022-10-19T01:54:44.693Z,77.24
2022-10-19T01:55:44.699Z,76.74
2022-10-19T01:56:44.693Z,77.03
2022-10-19T01:57:44.660Z,76.74
2022-10-19T01:58:44.635Z,76.53
2022-10-19T01:59:44.615Z,77.03
2022-10-19T02:00:44.677Z,76.46
2022-10-19T02:01:44.616Z,76.53
2022-10-19T02:02:44.661Z,76.39
2022-10-19T02:03:44.589Z,76.05
2022-10-19T02:04:44.589Z,76.19
2022-10-19T02:05:44.558Z,76.46
2022-10-19T02:06:44.527Z,76.39
2022-10-19T02:07:44.511Z,76.74
2022-10-19T02:08:44.519Z,77.17
2022-10-19T02:09:44.524Z,77.10
2022-10-19T02:10:44.488Z,77.45
2022-10-19T02:11:47.942Z,77.89
2022-10-19T02:12:44.867Z,78.18
2022-10-19T02:13:44.842Z,78.84
2022-10-19T02:14:44.815Z,78.47
2022-10-19T02:15:44.444Z,79.06
2022-10-19T02:16:44.419Z,78.10
2022-10-19T02:17:44.743Z,78.18
2022-10-19T02:18:44.511Z,78.32
2022-10-19T02:19:44.558Z,78.91
2022-10-19T02:20:44.358Z,79.21
2022-10-19T02:21:44.364Z,79.06
2022-10-19T02:22:44.354Z,79.14
2022-10-19T02:23:44.330Z,78.99
2022-10-19T02:24:44.345Z,78.69
2022-10-19T02:25:44.308Z,78.84
2022-10-19T02:26:44.311Z,78.91
2022-10-19T02:27:44.332Z,79.21
2022-10-19T02:28:45.152Z,79.36
2022-10-19T02:29:44.255Z,79.59
2022-10-19T02:30:44.347Z,79.97
2022-10-19T02:31:44.248Z,79.82
2022-10-19T02:32:44.249Z,79.51
2022-10-19T02:33:44.311Z,79.66
2022-10-19T02:34:44.452Z,79.66
2022-10-19T02:35:44.152Z,79.66
2022-10-19T02:36:44.229Z,79.59
2022-10-19T02:37:44.519Z,79.44
2022-10-19T02:38:44.236Z,79.21
2022-10-19T02:39:44.116Z,78.99
2022-10-19T02:40:44.158Z,79.51
2022-10-19T02:41:44.225Z,79.74
2022-10-19T02:42:44.141Z,79.29
2022-10-19T02:43:44.114Z,79.59
2022-10-19T02:44:44.032Z,79.66
2022-10-19T02:45:44.062Z,79.44
2022-10-19T02:46:44.044Z,79.44
2022-10-19T02:47:44.150Z,79.51
2022-10-19T02:48:43.989Z,79.21
2022-10-19T02:49:44.063Z,78.99
2022-10-19T02:50:44.063Z,79.29
2022-10-19T02:51:43.975Z,79.14
2022-10-19T02:52:44.003Z,78.84
2022-10-19T02:53:43.951Z,79.06
2022-10-19T02:54:43.933Z,79.29
2022-10-19T02:55:43.905Z,79.44
2022-10-19T02:56:43.882Z,79.21
2022-10-19T02:57:44.334Z,79.06
2022-10-19T02:58:43.925Z,78.99
2022-10-19T02:59:43.946Z,78.47
2022-10-19T03:00:43.867Z,78.40
2022-10-19T03:01:44.154Z,78.54
2022-10-19T03:02:44.717Z,78.32
2022-10-19T03:03:43.909Z,78.32
2022-10-19T03:04:44.795Z,78.69
2022-10-19T03:05:43.914Z,78.62
2022-10-19T03:06:43.898Z,78.40
2022-10-19T03:07:43.833Z,78.10
2022-10-19T03:08:44.036Z,77.45
2022-10-19T03:09:43.750Z,77.67
2022-10-19T03:10:43.799Z,77.53
2022-10-19T03:11:43.828Z,77.45
2022-10-19T03:12:43.682Z,77.10
2022-10-19T03:13:43.938Z,76.89
2022-10-19T03:14:43.656Z,76.74
2022-10-19T03:15:43.655Z,76.74
2022-10-19T03:16:43.669Z,77.10
2022-10-19T03:17:43.645Z,76.82
2022-10-19T03:18:43.606Z,76.82
2022-10-19T03:19:43.590Z,77.31
2022-10-19T03:20:43.574Z,77.03
2022-10-19T03:21:43.538Z,77.31
2022-10-19T03:22:43.666Z,77.24
2022-10-19T03:23:43.556Z,77.17
2022-10-19T03:24:43.509Z,77.31
2022-10-19T03:25:43.545Z,77.17
2022-10-19T03:26:43.529Z,76.89
2022-10-19T03:27:43.460Z,77.74
2022-10-19T03:28:43.563Z,78.03
2022-10-19T03:29:43.447Z,77.89
2022-10-19T03:30:43.459Z,77.53
2022-10-19T03:31:43.437Z,77.38
2022-10-19T03:32:43.406Z,77.03
2022-10-19T03:33:43.396Z,77.38
2022-10-19T03:34:43.401Z,77.67
2022-10-19T03:35:43.370Z,77.60
2022-10-19T03:36:43.387Z,77.53
2022-10-19T03:37:43.338Z,78.03
2022-10-19T03:38:43.324Z,78.03
2022-10-19T03:39:43.330Z,78.40
2022-10-19T03:40:43.335Z,78.54
2022-10-19T03:41:43.294Z,78.62
2022-10-19T03:42:43.287Z,78.54
2022-10-19T03:43:43.342Z,78.62
2022-10-19T03:44:43.342Z,79.14
2022-10-19T03:45:43.339Z,79.74
2022-10-19T03:46:43.275Z,79.06
2022-10-19T03:47:43.239Z,78.99
2022-10-19T03:48:43.363Z,79.44
2022-10-19T03:49:43.323Z,79.36
2022-10-19T03:50:43.285Z,79.21
2022-10-19T03:51:43.196Z,79.82
2022-10-19T03:52:43.155Z,80.58
2022-10-19T03:53:43.256Z,80.97
2022-10-19T03:54:43.337Z,81.37
2022-10-19T03:55:43.108Z,82.33
2022-10-19T03:56:43.275Z,82.82
2022-10-19T03:57:43.078Z,83.48
2022-10-19T03:58:43.056Z,84.66
2022-10-19T03:59:43.054Z,84.92
2022-10-19T04:00:43.096Z,85.52
2022-10-19T04:01:43.040Z,86.32
2022-10-19T04:02:43.019Z,86.67
2022-10-19T04:03:42.989Z,87.58
2022-10-19T04:04:42.995Z,88.60
2022-10-19T04:05:43.000Z,89.74
2022-10-19T04:06:42.979Z,90.42
2022-10-19T04:07:42.972Z,90.12
2022-10-19T04:08:42.970Z,89.83
2022-10-19T04:09:42.914Z,89.83
2022-10-19T04:10:42.901Z,90.61
2022-10-19T04:11:42.905Z,91.20
2022-10-19T04:12:42.875Z,91.30
2022-10-19T04:13:42.886Z,91.70
2022-10-19T04:14:56.726Z,92.21
2022-10-19T04:15:42.865Z,92.11
2022-10-19T04:16:42.841Z,92.61
2022-10-19T04:17:45.644Z,93.23
2022-10-19T04:18:42.829Z,93.55
2022-10-19T04:19:42.809Z,94.50
2022-10-19T04:20:42.771Z,95.14
2022-10-19T04:21:42.773Z,95.68
2022-10-19T04:22:42.743Z,94.85
2022-10-19T04:23:42.728Z,94.85
2022-10-19T04:24:42.712Z,95.39
2022-10-19T04:25:42.717Z,96.04
2022-10-19T04:26:42.684Z,96.99
2022-10-19T04:27:42.706Z,97.50
2022-10-19T04:28:42.738Z,98.12
2022-10-19T04:29:42.664Z,99.41
2022-10-19T04:30:42.654Z,100.42
2022-10-19T04:31:42.641Z,100.66
2022-10-19T04:32:42.619Z,100.84
2022-10-19T04:33:42.668Z,101.82
2022-10-19T04:34:42.611Z,102.45
2022-10-19T04:35:42.590Z,102.38
2022-10-19T04:36:42.599Z,102.63
2022-10-19T04:37:42.544Z,103.46
2022-10-19T04:38:42.560Z,103.84
2022-10-19T04:39:42.544Z,104.43
2022-10-19T04:40:42.502Z,104.30
2022-10-19T04:41:42.498Z,104.95
2022-10-19T04:42:42.479Z,105.15
2022-10-19T04:43:42.471Z,106.35
2022-10-19T04:44:42.489Z,106.82
2022-10-19T04:45:42.426Z,107.86
2022-10-19T04:46:42.443Z,108.13
2022-10-19T04:47:42.457Z,108.41
2022-10-19T04:48:42.415Z,108.13
2022-10-19T04:49:42.405Z,108.55
2022-10-19T04:50:42.386Z,108.20
2022-10-19T04:51:42.383Z,107.99
2022-10-19T04:52:42.380Z,107.30
2022-10-19T04:53:42.346Z,106.08
2022-10-19T04:54:42.335Z,105.74
2022-10-19T04:55:42.334Z,105.54
2022-10-19T04:56:42.307Z,105.54
2022-10-19T04:57:42.322Z,106.15
2022-10-19T04:58:42.292Z,106.08
2022-10-19T04:59:42.271Z,105.68
2022-10-19T05:00:42.321Z,105.35
2022-10-19T05:01:46.404Z,105.54
2022-10-19T05:02:42.222Z,105.15
2022-10-19T05:03:42.240Z,105.74
2022-10-19T05:04:45.124Z,107.03
2022-10-19T05:05:42.175Z,107.58
2022-10-19T05:06:42.186Z,107.58
2022-10-19T05:07:42.153Z,108.06
2022-10-19T05:08:42.127Z,108.62
2022-10-19T05:09:42.126Z,108.41
2022-10-19T05:10:44.292Z,108.27
2022-10-19T05:11:42.112Z,107.79
2022-10-19T05:12:42.101Z,107.10
2022-10-19T05:13:42.088Z,106.75
2022-10-19T05:14:42.973Z,107.30
2022-10-19T05:15:42.074Z,107.30
2022-10-19T05:16:42.050Z,106.28
2022-10-19T05:17:42.032Z,105.08
2022-10-19T05:18:42.016Z,104.88
2022-10-19T05:19:42.009Z,104.82
2022-10-19T05:20:41.972Z,105.48
2022-10-19T05:21:42.002Z,104.95
2022-10-19T05:22:41.964Z,105.08
2022-10-19T05:23:41.990Z,105.15
2022-10-19T05:24:41.915Z,103.71
2022-10-19T05:25:41.924Z,103.52
2022-10-19T05:26:41.911Z,103.97
2022-10-19T05:27:41.911Z,104.10
2022-10-19T05:28:41.887Z,104.49
2022-10-19T05:29:41.935Z,104.82
2022-10-19T05:30:45.424Z,105.61
2022-10-19T05:31:41.856Z,105.74
2022-10-19T05:32:41.816Z,106.15
2022-10-19T05:33:41.827Z,107.30
2022-10-19T05:34:41.799Z,108.27
2022-10-19T05:35:41.782Z,109.55
2022-10-19T05:36:41.774Z,110.85
2022-10-19T05:37:41.806Z,111.67
2022-10-19T05:38:41.746Z,112.26
2022-10-19T05:39:41.747Z,112.57
2022-10-19T05:40:41.725Z,112.26
2022-10-19T05:41:41.701Z,112.04
2022-10-19T05:42:41.701Z,112.57
2022-10-19T05:43:41.727Z,113.33
2022-10-19T05:44:41.684Z,115.28
2022-10-19T05:45:41.672Z,116.24
2022-10-19T05:46:41.640Z,117.05
2022-10-19T05:47:41.659Z,118.54
2022-10-19T05:48:41.625Z,118.79
2022-10-19T05:49:41.676Z,119.64
2022-10-19T05:50:41.595Z,121.64
2022-10-19T05:51:41.579Z,124.81
2022-10-19T05:52:41.592Z,127.38
2022-10-19T05:53:41.591Z,128.75
2022-10-19T05:54:41.565Z,129.14
2022-10-19T05:55:41.538Z,128.16
2022-10-19T05:56:41.563Z,127.09
2022-10-19T05:57:41.491Z,125.75
2022-10-19T05:58:41.487Z,124.26
2022-10-19T05:59:41.472Z,124.07
2022-10-19T06:00:41.452Z,124.54
2022-10-19T06:01:41.502Z,125.66
2022-10-19T06:02:41.483Z,126.03
2022-10-19T06:03:41.432Z,127.38
2022-10-19T06:04:41.445Z,128.85
2022-10-19T06:05:41.450Z,128.75
2022-10-19T06:06:41.376Z,129.54
2022-10-19T06:07:41.368Z,129.84
2022-10-19T06:08:41.345Z,129.64
2022-10-19T06:09:41.359Z,129.04
2022-10-19T06:10:41.320Z,128.35
2022-10-19T06:11:41.321Z,127.67
2022-10-19T06:12:41.318Z,126.80
2022-10-19T06:13:41.308Z,126.32
2022-10-19T06:14:41.325Z,125.19
2022-10-19T06:15:41.318Z,124.07
2022-10-19T06:16:41.316Z,123.43
2022-10-19T06:17:41.257Z,122.80
2022-10-19T06:18:41.842Z,120.94
2022-10-19T06:19:41.229Z,119.56
2022-10-19T06:20:41.234Z,118.79
2022-10-19T06:21:43.397Z,117.96
2022-10-19T06:22:41.195Z,117.63
2022-10-19T06:24:41.180Z,117.21
2022-10-19T06:25:41.183Z,116.08
2022-10-19T06:26:41.123Z,115.28
2022-10-19T06:27:41.191Z,114.96
2022-10-19T06:28:41.140Z,114.26
2022-10-19T06:29:41.153Z,114.33
2022-10-19T06:30:41.122Z,114.26
2022-10-19T06:31:41.111Z,114.65
2022-10-19T06:32:41.052Z,114.57
2022-10-19T06:33:41.170Z,114.49
2022-10-19T06:34:41.046Z,114.65
2022-10-19T06:35:41.010Z,114.33
2022-10-19T06:36:41.021Z,114.73
2022-10-19T06:37:40.990Z,114.49
2022-10-19T06:38:40.984Z,113.64
2022-10-19T06:39:41.040Z,114.18
2022-10-19T06:40:40.958Z,114.80
2022-10-19T06:41:40.929Z,115.44
2022-10-19T06:42:40.923Z,115.44
2022-10-19T06:43:40.893Z,116.89
2022-10-19T06:44:40.899Z,117.38
2022-10-19T06:45:40.856Z,118.21
2022-10-19T06:46:40.867Z,118.37
2022-10-19T06:47:40.910Z,118.12
2022-10-19T06:48:40.858Z,118.12
2022-10-19T06:49:40.891Z,117.87
2022-10-19T06:50:40.793Z,118.88
2022-10-19T06:51:40.802Z,118.29
2022-10-19T06:52:40.821Z,117.96
2022-10-19T06:53:40.773Z,116.16
2022-10-19T06:54:40.761Z,116.08
2022-10-19T06:55:40.748Z,115.36
2022-10-19T06:56:40.767Z,118.79
2022-10-19T06:57:40.749Z,119.81
2022-10-19T06:58:40.724Z,120.50
2022-10-19T06:59:40.704Z,121.11
2022-10-19T07:00:40.737Z,123.53
2022-10-19T07:01:40.711Z,124.26
2022-10-19T07:02:40.692Z,124.81
2022-10-19T07:03:40.646Z,125.28
2022-10-19T07:04:40.625Z,124.35
2022-10-19T07:05:40.597Z,122.53
2022-10-19T07:06:40.582Z,121.03
2022-10-19T07:07:40.604Z,120.94
2022-10-19T07:08:40.553Z,121.20
2022-10-19T07:09:40.566Z,120.85
2022-10-19T07:10:40.594Z,121.38
2022-10-19T07:11:45.645Z,122.71
2022-10-19T07:12:40.513Z,124.17
2022-10-19T07:13:40.524Z,125.09
2022-10-19T07:14:40.515Z,127.96
2022-10-19T07:15:40.487Z,128.65
2022-10-19T07:16:40.458Z,130.65
2022-10-19T07:17:40.493Z,133.15
2022-10-19T07:18:40.451Z,134.32
2022-10-19T07:19:40.406Z,132.94
2022-10-19T07:20:40.430Z,134.86
2022-10-19T07:21:40.397Z,134.54
2022-10-19T07:22:40.410Z,135.08
2022-10-19T07:23:40.436Z,135.08
2022-10-19T07:24:40.370Z,134.97
2022-10-19T07:25:40.365Z,136.07
2022-10-19T07:26:40.344Z,137.86
2022-10-19T07:27:40.640Z,138.43
2022-10-19T07:28:40.323Z,139.35
2022-10-19T07:29:40.300Z,140.87
2022-10-19T07:30:40.253Z,140.99
2022-10-19T07:31:40.290Z,142.43
2022-10-19T07:32:43.199Z,145.02
2022-10-19T07:33:40.272Z,147.06
2022-10-19T07:34:40.234Z,149.55
2022-10-19T07:35:40.196Z,155.52
2022-10-19T07:36:40.224Z,158.47
2022-10-19T07:37:40.193Z,160.75
2022-10-19T07:38:40.181Z,157.57
2022-10-19T07:39:40.225Z,156.40
2022-10-19T07:40:44.746Z,156.69
2022-10-19T07:41:40.146Z,156.84
2022-10-19T07:42:40.107Z,160.29
2022-10-19T07:43:40.115Z,166.50
2022-10-19T07:44:40.109Z,173.40
2022-10-19T07:45:40.065Z,178.95
2022-10-19T07:46:40.058Z,185.90
2022-10-19T07:47:40.040Z,188.56
2022-10-19T07:48:40.027Z,189.76
2022-10-19T07:49:40.033Z,192.08
2022-10-19T07:50:40.001Z,197.14
2022-10-19T07:51:40.066Z,199.89
2022-10-19T07:52:40.252Z,201.61
2022-10-19T07:53:39.987Z,204.49
2022-10-19T07:54:39.971Z,204.87
2022-10-19T07:55:39.975Z,208.50
2022-10-19T07:56:39.975Z,223.19
2022-10-19T07:57:41.571Z,228.30
2022-10-19T07:58:39.897Z,232.98
2022-10-19T07:59:39.901Z,233.48
2022-10-19T08:01:39.913Z,238.38
2022-10-19T08:02:59.789Z,236.33
2022-10-19T08:05:39.853Z,256.58
2022-10-19T08:06:39.795Z,253.81
2022-10-19T08:07:39.776Z,259.61
2022-10-19T08:08:39.818Z,263.98
2022-10-19T08:09:52.821Z,264.41
2022-10-19T08:10:39.753Z,267.63
2022-10-19T08:11:39.764Z,265.69
2022-10-19T08:12:39.761Z,265.26
2022-10-19T08:13:39.692Z,261.67
2022-10-19T08:14:39.680Z,266.33
2022-10-19T08:15:39.682Z,269.60
2022-10-19T08:16:39.675Z,261.26
2022-10-19T08:17:39.666Z,247.89
2022-10-19T08:18:39.685Z,246.04
2022-10-19T08:19:39.635Z,239.24
2022-10-19T08:20:39.639Z,233.48
2022-10-19T08:21:39.607Z,227.98
2022-10-19T08:22:39.610Z,234.64
2022-10-19T08:23:40.422Z,239.59
2022-10-19T08:24:39.562Z,246.96
2022-10-19T08:25:39.594Z,251.87
2022-10-19T08:26:39.530Z,246.77
2022-10-19T08:27:39.519Z,244.76
2022-10-19T08:28:39.534Z,243.31
2022-10-19T08:29:39.482Z,239.77
2022-10-19T08:30:39.506Z,249.58
2022-10-19T08:31:39.481Z,271.83
2022-10-19T08:32:39.467Z,280.15
2022-10-19T08:33:39.464Z,292.08
2022-10-19T08:34:39.448Z,283.77
2022-10-19T08:35:39.425Z,271.15
2022-10-19T08:36:39.429Z,267.85
2022-10-19T08:37:45.143Z,263.56
2022-10-19T08:38:39.405Z,258.39
2022-10-19T08:39:39.374Z,254.79
2022-10-19T08:40:39.363Z,258.19
2022-10-19T08:41:39.375Z,261.05
2022-10-19T08:42:39.344Z,268.28
2022-10-19T08:43:39.354Z,273.63
2022-10-19T08:44:39.343Z,277.32
2022-10-19T08:45:39.281Z,279.67
2022-10-19T08:46:39.305Z,280.15
2022-10-19T08:47:39.284Z,279.67
2022-10-19T08:48:39.265Z,274.77
2022-10-19T08:49:39.254Z,271.38
2022-10-19T08:50:39.237Z,274.55
2022-10-19T08:51:39.217Z,282.31
2022-10-19T08:52:39.253Z,289.25
2022-10-19T08:53:39.233Z,284.26
2022-10-19T08:54:39.226Z,278.73
2022-10-19T08:55:39.223Z,272.73
2022-10-19T08:56:50.593Z,261.88
2022-10-19T08:57:39.154Z,255.38
2022-10-19T08:58:39.135Z,246.59
2022-10-19T08:59:39.112Z,240.99
2022-10-19T09:01:39.093Z,254.99
2022-10-19T09:02:39.078Z,256.38
2022-10-19T09:03:55.735Z,267.20
2022-10-19T09:04:39.062Z,264.83
2022-10-19T09:05:39.030Z,268.28
2022-10-19T09:06:39.005Z,262.51
2022-10-19T09:07:39.037Z,265.90
2022-10-19T09:08:39.059Z,276.39
2022-10-19T09:09:39.018Z,278.96
2022-10-19T09:10:38.963Z,286.49
2022-10-19T09:11:38.945Z,286.73
2022-10-19T09:12:38.940Z,290.27
2022-10-19T09:13:41.637Z,304.78
2022-10-19T09:14:38.917Z,305.06
2022-10-19T09:15:38.873Z,298.70
2022-10-19T09:16:38.873Z,286.98
2022-10-19T09:17:38.847Z,283.77
2022-10-19T09:18:38.922Z,276.16
2022-10-19T09:19:38.841Z,270.49
2022-10-19T09:20:38.853Z,275.69
2022-10-19T09:21:44.593Z,281.59
2022-10-19T09:22:38.832Z,294.16
2022-10-19T09:23:38.767Z,299.24
2022-10-19T09:24:38.774Z,296.01
2022-10-19T09:25:38.758Z,295.48
2022-10-19T09:26:39.023Z,297.35
2022-10-19T09:27:38.716Z,302.54
2022-10-19T09:28:39.968Z,296.28
2022-10-19T09:29:38.747Z,294.69
2022-10-19T09:30:38.710Z,302.54
2022-10-19T09:31:40.612Z,314.98
2022-10-19T09:32:38.958Z,323.65
2022-10-19T09:33:38.736Z,330.80
2022-10-19T09:34:38.629Z,338.62
2022-10-19T09:35:38.658Z,341.43
2022-10-19T09:36:50.030Z,347.56
2022-10-19T09:37:38.602Z,352.39
2022-10-19T09:38:38.594Z,359.31
2022-10-19T09:39:39.957Z,363.67
2022-10-19T09:40:38.568Z,364.08
2022-10-19T09:41:38.532Z,360.10
2022-10-19T09:42:38.636Z,354.67
2022-10-19T09:43:38.542Z,353.15
2022-10-19T09:44:38.508Z,359.70
2022-10-19T09:45:38.498Z,377.00
2022-10-19T09:46:39.020Z,382.04
2022-10-19T09:47:38.780Z,380.95
2022-10-19T09:48:38.475Z,377.43
2022-10-19T09:49:38.496Z,386.23
2022-10-19T09:50:38.425Z,391.42
2022-10-19T09:51:38.401Z,398.17
2022-10-19T09:52:38.389Z,401.28
2022-10-19T09:53:38.383Z,408.63
2022-10-19T09:54:38.398Z,404.92
2022-10-19T09:55:38.459Z,412.66
2022-10-19T09:56:38.422Z,409.88
2022-10-19T09:57:38.332Z,423.89
2022-10-19T09:58:38.320Z,441.22
2022-10-19T09:59:38.293Z,450.12
2022-10-19T10:00:38.300Z,460.02
2022-10-19T10:01:43.067Z,461.92
2022-10-19T10:02:38.614Z,461.61
2022-10-19T10:03:38.273Z,471.69
2022-10-19T10:04:38.303Z,480.15
2022-10-19T10:05:38.244Z,488.92
2022-10-19T10:06:38.249Z,494.70
2022-10-19T10:07:38.221Z,512.11
2022-10-19T10:08:38.265Z,532.48
2022-10-19T10:09:38.203Z,539.35
2022-10-19T10:10:38.186Z,540.22
2022-10-19T10:11:38.192Z,547.28
2022-10-19T10:12:38.168Z,569.64
2022-10-19T10:13:38.119Z,583.55
2022-10-19T10:15:34.142Z,412.40
2022-10-19T10:16:46.463Z,470.70
2022-10-19T10:17:35.535Z,515.66
2022-10-19T10:18:35.412Z,527.86
2022-10-19T10:19:35.277Z,533.76
2022-10-19T10:20:35.264Z,529.53
2022-10-19T10:21:35.231Z,541.53
2022-10-19T10:22:35.531Z,539.35
2022-10-19T10:23:35.281Z,549.98
2022-10-19T10:24:37.231Z,561.99
2022-10-19T10:25:36.788Z,588.68
2022-10-19T10:27:37.707Z,623.21
2022-10-19T10:29:35.540Z,630.85
2022-10-19T10:30:07.162Z,692.89
2022-10-19T10:31:09.130Z,749.53
2022-10-19T10:32:34.480Z,817.07
2022-10-19T10:32:52.944Z,883.91
2022-10-19T10:34:07.532Z,926.05
2022-10-19T10:35:01.221Z,1006.01
2022-10-19T10:35:51.763Z,1076.31
2022-10-19T10:36:47.396Z,1125.10
2022-10-19T10:37:47.064Z,1122.28
2022-10-19T10:38:47.328Z,1147.26
2022-10-19T10:39:48.837Z,1155.17
2022-10-19T10:40:41.588Z,1115.74
2022-10-19T10:41:42.421Z,1084.14
2022-10-19T10:42:42.317Z,1052.63
2022-10-19T10:43:43.652Z,1045.24
2022-10-19T10:44:43.464Z,1065.18
2022-10-19T10:45:43.319Z,1086.78
2022-10-19T10:46:41.361Z,1095.67
2022-10-19T10:47:41.939Z,1088.55
2022-10-19T10:48:43.408Z,1078.04
2022-10-19T10:49:42.368Z,1087.66
2022-10-19T10:50:41.568Z,1097.46
2022-10-19T10:51:41.471Z,1115.74
2022-10-19T10:52:41.452Z,1117.60
2022-10-19T10:53:43.550Z,1110.19
2022-10-19T10:54:41.615Z,1101.07
2022-10-19T10:55:41.038Z,1112.03
2022-10-19T10:56:40.745Z,1092.09
2022-10-19T10:57:40.730Z,1107.44
2022-10-19T10:58:41.393Z,1123.22
2022-10-19T10:59:43.184Z,1164.20
2022-10-19T11:00:40.642Z,1213.77
2022-10-19T11:01:40.624Z,1278.63
2022-10-19T11:02:40.820Z,1342.69
2022-10-19T11:03:42.121Z,1407.56
2022-10-19T11:04:40.754Z,1459.69
2022-10-19T11:05:40.728Z,1495.54
2022-10-19T11:06:43.684Z,1570.01
2022-10-19T11:07:40.764Z,1662.53
2022-10-19T11:08:41.718Z,1692.99
2022-10-19T11:09:41.414Z,1671.86
2022-10-19T11:10:41.379Z,1646.19
2022-10-19T11:11:40.613Z,1632.16
2022-10-19T11:12:40.576Z,1658.42
2022-10-19T11:13:41.491Z,1632.16
2022-10-19T11:14:40.636Z,1633.15
2022-10-19T11:15:40.504Z,1659.44
2022-10-19T11:16:40.580Z,1623.26
2022-10-19T11:17:40.537Z,1591.45
2022-10-19T11:18:41.338Z,1619.33
2022-10-19T11:19:40.855Z,1687.66
2022-10-19T11:20:40.329Z,1750.49
2022-10-19T11:21:40.626Z,1829.35
2022-10-19T11:22:41.293Z,1892.66
2022-10-19T11:23:40.608Z,1956.20
2022-10-19T11:24:41.890Z,1989.61
2022-10-19T11:25:40.560Z,2024.17
2022-10-19T11:26:40.401Z,2059.95
2022-10-19T11:27:40.681Z,2120.25
2022-10-19T11:28:41.433Z,2182.41
2022-10-19T11:29:40.661Z,2209.40
2022-10-19T11:30:42.489Z,2227.76
2022-10-19T11:31:40.328Z,2237.06
2022-10-19T11:32:40.506Z,2211.22
2022-10-19T11:33:40.331Z,2115.23
2022-10-19T11:34:40.308Z,2087.23
2022-10-19T11:35:40.130Z,1997.02
2022-10-19T11:36:40.327Z,1935.02
2022-10-19T11:37:49.454Z,1893.99
2022-10-19T11:38:40.137Z,1831.85
2022-10-19T11:39:40.479Z,1805.93
2022-10-19T11:40:45.785Z,1768.98
2022-10-19T11:41:40.196Z,1804.71
2022-10-19T11:42:40.139Z,1808.37
2022-10-19T11:43:40.126Z,1888.65
2022-10-19T11:44:40.169Z,1949.09
2022-10-19T11:45:40.086Z,2007.49
2022-10-19T11:46:40.109Z,2088.85
2022-10-19T11:47:40.130Z,2144.00
2022-10-19T11:48:43.050Z,2198.52
2022-10-19T11:49:40.009Z,2216.71
2022-10-19T11:50:39.982Z,2284.74
2022-10-19T11:51:39.981Z,2298.46
2022-10-19T11:52:40.101Z,2359.15
2022-10-19T11:53:39.947Z,2350.88
2022-10-19T11:54:40.057Z,2445.25
2022-10-19T11:55:40.296Z,2479.19
2022-10-19T11:57:01.793Z,2542.69
2022-10-19T11:57:39.903Z,2552.38
2022-10-19T11:58:39.916Z,2567.05
2022-10-19T11:59:39.913Z,2648.22
2022-10-19T12:00:40.132Z,2723.58
2022-10-19T12:01:39.786Z,2715.30
2022-10-19T12:02:39.705Z,2718.05
2022-10-19T12:03:39.671Z,2696.18
2022-10-19T12:04:39.652Z,2748.72
2022-10-19T12:05:39.672Z,2765.74
2022-10-19T12:06:39.732Z,2803.35
2022-10-19T12:07:39.724Z,2765.74
2022-10-19T12:08:39.739Z,2682.68
2022-10-19T12:09:39.652Z,2614.63
2022-10-19T12:10:39.606Z,2490.71
2022-10-19T12:11:39.649Z,2363.31
2022-10-19T12:12:39.633Z,2310.34
2022-10-19T12:13:39.621Z,2231.47
2022-10-19T12:14:39.610Z,2185.97
2022-10-19T12:15:39.549Z,2125.30
2022-10-19T12:16:39.509Z,2045.80
2022-10-19T12:17:40.366Z,1972.04
2022-10-19T12:18:41.429Z,1954.78
2022-10-19T12:19:42.574Z,1925.29
2022-10-19T12:20:40.897Z,1883.34
2022-10-19T12:21:48.341Z,1874.13
2022-10-19T12:22:40.856Z,1854.67
2022-10-19T12:23:42.661Z,1847.00
2022-10-19T12:24:40.007Z,1804.71
2022-10-19T12:25:43.492Z,1779.55
2022-10-19T12:26:42.632Z,1799.86
2022-10-19T12:27:42.282Z,1812.04
2022-10-19T12:28:39.932Z,1780.73
2022-10-19T12:30:01.805Z,1781.92
2022-10-19T12:30:40.045Z,1768.98
2022-10-19T12:31:42.772Z,1801.07
2022-10-19T12:32:41.907Z,1815.72
2022-10-19T12:33:41.047Z,1809.59
2022-10-19T12:34:41.928Z,1797.45
2022-10-19T12:35:41.672Z,1799.86
2022-10-19T12:37:17.115Z,1804.71
2022-10-19T12:37:51.842Z,1791.44
2022-10-19T12:38:49.439Z,1825.61
2022-10-19T12:39:46.359Z,1795.04